PWSweather.com
Personal Weather Stations
Station Observations
GRD01
Warsaw, LesznoPL 05-084

WarsawLesznoPL 05-084

Lat: 52.257404, Lon: 20.564847

Elevation: 298

Station Type: WH3080

http://pogoda.kampinos.waw.pl

High Low Average
Temperature 66.9°F19.4°C 47.5°F8.6°C 54.8°F12.7°C
Dew Point 51.0°F10.6°C 41.9°F5.5°C 46.4°F8.0°C
Winds 5.4 mph 8.7 kmh Calm Calm 2.0 mph S3.2 kmh S
Wind Gusts 13.0 mph20.9 kmh 0.7 mph1.1 kmh 6.0 mph9.7 kmh
Humidity 86% 52% 74%
Pressure 30.07 in1018.3 mb 29.97 in1014.9 mb -
Precipitation 0.00 in0.0 mm - -
Hour Temp Dew Point Humidity Winds Wind Gusts Pressure Precip Precip Rate Daily Precip Total
12:00 AM 50.4°F10.2°C 46.3°F7.9°C 86% 1.6 mph SSW2.6 kmh SSW 6.9 mph11.1 kmh 29.97 in1014.9 mb 0.00 in0.0 mm 0.00 in0.0 mm 0.00 in0.0 mm
12:15 AM 50.4°F10.2°C 46.3°F7.9°C 86% 1.6 mph SSW2.6 kmh SSW 7.6 mph12.2 kmh 29.97 in1014.9 mb 0.00 in0.0 mm 0.00 in0.0 mm 0.00 in0.0 mm
12:30 AM 50.4°F10.2°C 46.0°F7.8°C 85% 3.8 mph S6.1 kmh S 9.2 mph14.8 kmh 29.98 in1015.2 mb 0.00 in0.0 mm 0.00 in0.0 mm 0.00 in0.0 mm
12:45 AM 50.5°F10.3°C 45.9°F7.7°C 84% 3.8 mph SW6.1 kmh SW 6.9 mph11.1 kmh 29.98 in1015.2 mb 0.00 in0.0 mm 0.00 in0.0 mm 0.00 in0.0 mm
01:00 AM 50.7°F10.4°C 45.7°F7.6°C 83% 3.8 mph SW6.1 kmh SW 9.2 mph14.8 kmh 29.98 in1015.2 mb 0.00 in0.0 mm 0.00 in0.0 mm 0.00 in0.0 mm
01:15 AM 50.7°F10.4°C 45.1°F7.3°C 81% 1.6 mph S2.6 kmh S 8.3 mph13.4 kmh 29.98 in1015.2 mb 0.00 in0.0 mm 0.00 in0.0 mm 0.00 in0.0 mm
01:30 AM 50.7°F10.4°C 45.1°F7.3°C 81% 3.1 mph S5.0 kmh S 7.6 mph12.2 kmh 29.98 in1015.2 mb 0.00 in0.0 mm 0.00 in0.0 mm 0.00 in0.0 mm
01:45 AM 50.5°F10.3°C 44.6°F7.0°C 80% 1.6 mph S2.6 kmh S 6.9 mph11.1 kmh 29.98 in1015.2 mb 0.00 in0.0 mm 0.00 in0.0 mm 0.00 in0.0 mm
02:00 AM 50.4°F10.2°C 44.4°F6.9°C 80% 5.4 mph SSW8.7 kmh SSW 9.8 mph15.8 kmh 29.98 in1015.2 mb 0.00 in0.0 mm 0.00 in0.0 mm 0.00 in0.0 mm
02:15 AM 50.4°F10.2°C 44.4°F6.9°C 80% 3.1 mph SSW5.0 kmh SSW 9.2 mph14.8 kmh 29.99 in1015.6 mb 0.00 in0.0 mm 0.00 in0.0 mm 0.00 in0.0 mm
02:30 AM 50.4°F10.2°C 44.4°F6.9°C 80% 3.1 mph SW5.0 kmh SW 13.0 mph20.9 kmh 29.99 in1015.6 mb 0.00 in0.0 mm 0.00 in0.0 mm 0.00 in0.0 mm
02:45 AM 50.2°F10.1°C 44.2°F6.8°C 80% 5.4 mph SSW8.7 kmh SSW 9.2 mph14.8 kmh 29.98 in1015.2 mb 0.00 in0.0 mm 0.00 in0.0 mm 0.00 in0.0 mm
03:00 AM 50.0°F10.0°C 43.7°F6.5°C 79% 5.4 mph S8.7 kmh S 8.3 mph13.4 kmh 29.99 in1015.6 mb 0.00 in0.0 mm 0.00 in0.0 mm 0.00 in0.0 mm
03:15 AM 50.0°F10.0°C 43.7°F6.5°C 79% 1.6 mph SSW2.6 kmh SSW 7.6 mph12.2 kmh 29.99 in1015.6 mb 0.00 in0.0 mm 0.00 in0.0 mm 0.00 in0.0 mm
03:30 AM 49.6°F9.8°C 43.4°F6.3°C 79% 2.2 mph S3.5 kmh S 5.4 mph8.7 kmh 29.99 in1015.6 mb 0.00 in0.0 mm 0.00 in0.0 mm 0.00 in0.0 mm
03:45 AM 49.3°F9.6°C 43.4°F6.3°C 80% 4.5 mph S7.2 kmh S 8.3 mph13.4 kmh 30.00 in1015.9 mb 0.00 in0.0 mm 0.00 in0.0 mm 0.00 in0.0 mm
04:00 AM 48.9°F9.4°C 43.0°F6.1°C 80% 1.6 mph SSW2.6 kmh SSW 5.4 mph8.7 kmh 30.00 in1015.9 mb 0.00 in0.0 mm 0.00 in0.0 mm 0.00 in0.0 mm
04:15 AM 48.6°F9.2°C 42.7°F5.9°C 80% 2.2 mph S3.5 kmh S 6.0 mph9.7 kmh 30.00 in1015.9 mb 0.00 in0.0 mm 0.00 in0.0 mm 0.00 in0.0 mm
04:30 AM 48.2°F9.0°C 42.3°F5.7°C 80% 1.6 mph S2.6 kmh S 6.0 mph9.7 kmh 30.00 in1015.9 mb 0.00 in0.0 mm 0.00 in0.0 mm 0.00 in0.0 mm
04:45 AM 48.2°F9.0°C 42.6°F5.9°C 81% 1.6 mph S2.6 kmh S 6.0 mph9.7 kmh 30.00 in1015.9 mb 0.00 in0.0 mm 0.00 in0.0 mm 0.00 in0.0 mm
05:00 AM 48.0°F8.9°C 42.5°F5.8°C 81% 3.1 mph S5.0 kmh S 4.5 mph7.2 kmh 30.00 in1015.9 mb 0.00 in0.0 mm 0.00 in0.0 mm 0.00 in0.0 mm
05:15 AM 47.8°F8.8°C 42.3°F5.7°C 81% 2.2 mph S3.5 kmh S 6.9 mph11.1 kmh 30.00 in1015.9 mb 0.00 in0.0 mm 0.00 in0.0 mm 0.00 in0.0 mm
05:30 AM 47.7°F8.7°C 42.1°F5.6°C 81% 3.1 mph S5.0 kmh S 6.0 mph9.7 kmh 30.00 in1015.9 mb 0.00 in0.0 mm 0.00 in0.0 mm 0.00 in0.0 mm
05:45 AM 47.7°F8.7°C 42.1°F5.6°C 81% 2.2 mph S3.5 kmh S 4.5 mph7.2 kmh 30.00 in1015.9 mb 0.00 in0.0 mm 0.00 in0.0 mm 0.00 in0.0 mm
06:00 AM 47.5°F8.6°C 41.9°F5.5°C 81% 1.6 mph S2.6 kmh S 4.5 mph7.2 kmh 30.00 in1015.9 mb 0.00 in0.0 mm 0.00 in0.0 mm 0.00 in0.0 mm
06:15 AM 47.8°F8.8°C 42.3°F5.7°C 81% 2.2 mph SSW3.5 kmh SSW 5.4 mph8.7 kmh 30.01 in1016.3 mb 0.00 in0.0 mm 0.00 in0.0 mm 0.00 in0.0 mm
06:30 AM 48.2°F9.0°C 42.6°F5.9°C 81% 1.6 mph SSW2.6 kmh SSW 6.9 mph11.1 kmh 30.01 in1016.3 mb 0.00 in0.0 mm 0.00 in0.0 mm 0.00 in0.0 mm
06:45 AM 48.7°F9.3°C 43.2°F6.2°C 81% 2.2 mph S3.5 kmh S 4.5 mph7.2 kmh 30.01 in1016.3 mb 0.00 in0.0 mm 0.00 in0.0 mm 0.00 in0.0 mm
07:00 AM 49.3°F9.6°C 43.7°F6.5°C 81% 0.7 mph SSW1.1 kmh SSW 4.5 mph7.2 kmh 30.02 in1016.6 mb 0.00 in0.0 mm 0.00 in0.0 mm 0.00 in0.0 mm
07:15 AM 50.2°F10.1°C 44.6°F7.0°C 81% 1.6 mph S2.6 kmh S 3.8 mph6.1 kmh 30.02 in1016.6 mb 0.00 in0.0 mm 0.00 in0.0 mm 0.00 in0.0 mm
07:30 AM 50.7°F10.4°C 45.1°F7.3°C 81% 1.6 mph SSW2.6 kmh SSW 6.0 mph9.7 kmh 30.03 in1016.9 mb 0.00 in0.0 mm 0.00 in0.0 mm 0.00 in0.0 mm
07:45 AM 51.6°F10.9°C 45.7°F7.6°C 80% 2.2 mph SSW3.5 kmh SSW 3.8 mph6.1 kmh 30.04 in1017.3 mb 0.00 in0.0 mm 0.00 in0.0 mm 0.00 in0.0 mm
08:00 AM 52.3°F11.3°C 46.0°F7.8°C 79% 1.6 mph SSW2.6 kmh SSW 6.0 mph9.7 kmh 30.04 in1017.3 mb 0.00 in0.0 mm 0.00 in0.0 mm 0.00 in0.0 mm
08:15 AM 52.9°F11.6°C 46.2°F7.9°C 78% 3.1 mph SSW5.0 kmh SSW 6.9 mph11.1 kmh 30.04 in1017.3 mb 0.00 in0.0 mm 0.00 in0.0 mm 0.00 in0.0 mm
08:30 AM 53.4°F11.9°C 46.4°F8.0°C 77% 3.1 mph SSW5.0 kmh SSW 6.9 mph11.1 kmh 30.04 in1017.3 mb 0.00 in0.0 mm 0.00 in0.0 mm 0.00 in0.0 mm
08:45 AM 54.1°F12.3°C 47.1°F8.4°C 77% 2.2 mph SSW3.5 kmh SSW 7.6 mph12.2 kmh 30.04 in1017.3 mb 0.00 in0.0 mm 0.00 in0.0 mm 0.00 in0.0 mm
09:00 AM 54.7°F12.6°C 46.2°F7.9°C 73% 3.8 mph SSW6.1 kmh SSW 5.4 mph8.7 kmh 30.04 in1017.3 mb 0.00 in0.0 mm 0.00 in0.0 mm 0.00 in0.0 mm
09:15 AM 55.4°F13.0°C 46.5°F8.1°C 72% 0.7 mph SW1.1 kmh SW 3.8 mph6.1 kmh 30.05 in1017.6 mb 0.00 in0.0 mm 0.00 in0.0 mm 0.00 in0.0 mm
09:30 AM 56.1°F13.4°C 47.2°F8.4°C 72% 1.6 mph S2.6 kmh S 7.6 mph12.2 kmh 30.05 in1017.6 mb 0.00 in0.0 mm 0.00 in0.0 mm 0.00 in0.0 mm
09:45 AM 56.5°F13.6°C 47.2°F8.4°C 71% 3.1 mph SW5.0 kmh SW 5.4 mph8.7 kmh 30.06 in1017.9 mb 0.00 in0.0 mm 0.00 in0.0 mm 0.00 in0.0 mm
10:00 AM 56.7°F13.7°C 47.0°F8.3°C 70% 2.2 mph SSW3.5 kmh SSW 8.3 mph13.4 kmh 30.05 in1017.6 mb 0.00 in0.0 mm 0.00 in0.0 mm 0.00 in0.0 mm
10:15 AM 56.7°F13.7°C 47.0°F8.3°C 70% 3.1 mph SSW5.0 kmh SSW 6.9 mph11.1 kmh 30.06 in1017.9 mb 0.00 in0.0 mm 0.00 in0.0 mm 0.00 in0.0 mm
10:30 AM 56.7°F13.7°C 47.0°F8.3°C 70% 3.1 mph SSW5.0 kmh SSW 6.0 mph9.7 kmh 30.06 in1017.9 mb 0.00 in0.0 mm 0.00 in0.0 mm 0.00 in0.0 mm
10:45 AM 57.0°F13.9°C 47.3°F8.5°C 70% 1.6 mph SSW2.6 kmh SSW 5.4 mph8.7 kmh 30.06 in1017.9 mb 0.00 in0.0 mm 0.00 in0.0 mm 0.00 in0.0 mm
11:00 AM 57.4°F14.1°C 47.7°F8.7°C 70% 2.2 mph S3.5 kmh S 3.8 mph6.1 kmh 30.05 in1017.6 mb 0.00 in0.0 mm 0.00 in0.0 mm 0.00 in0.0 mm
11:15 AM 58.1°F14.5°C 48.0°F8.9°C 69% 1.6 mph SW2.6 kmh SW 4.5 mph7.2 kmh 30.07 in1018.3 mb 0.00 in0.0 mm 0.00 in0.0 mm 0.00 in0.0 mm
11:30 AM 58.8°F14.9°C 48.3°F9.1°C 68% 0.7 mph S1.1 kmh S 5.4 mph8.7 kmh 30.06 in1017.9 mb 0.00 in0.0 mm 0.00 in0.0 mm 0.00 in0.0 mm
11:45 AM 59.4°F15.2°C 48.4°F9.1°C 67% 1.6 mph SW2.6 kmh SW 4.5 mph7.2 kmh 30.06 in1017.9 mb 0.00 in0.0 mm 0.00 in0.0 mm 0.00 in0.0 mm
12:00 PM 60.3°F15.7°C 48.9°F9.4°C 66% 1.6 mph SSE2.6 kmh SSE 6.9 mph11.1 kmh 30.06 in1017.9 mb 0.00 in0.0 mm 0.00 in0.0 mm 0.00 in0.0 mm
12:15 PM 60.6°F15.9°C 49.2°F9.6°C 66% 5.4 mph S8.7 kmh S 7.6 mph12.2 kmh 30.05 in1017.6 mb 0.00 in0.0 mm 0.00 in0.0 mm 0.00 in0.0 mm
12:30 PM 61.0°F16.1°C 49.1°F9.5°C 65% 1.6 mph S2.6 kmh S 5.4 mph8.7 kmh 30.05 in1017.6 mb 0.00 in0.0 mm 0.00 in0.0 mm 0.00 in0.0 mm
12:45 PM 61.2°F16.2°C 49.7°F9.8°C 66% 3.8 mph SSE6.1 kmh SSE 6.9 mph11.1 kmh 30.05 in1017.6 mb 0.00 in0.0 mm 0.00 in0.0 mm 0.00 in0.0 mm
01:00 PM 61.3°F16.3°C 49.5°F9.7°C 65% 1.6 mph SSE2.6 kmh SSE 5.4 mph8.7 kmh 30.05 in1017.6 mb 0.00 in0.0 mm 0.00 in0.0 mm 0.00 in0.0 mm
01:15 PM 62.2°F16.8°C 49.9°F9.9°C 64% 2.2 mph SE3.5 kmh SE 6.0 mph9.7 kmh 30.04 in1017.3 mb 0.00 in0.0 mm 0.00 in0.0 mm 0.00 in0.0 mm
01:30 PM 63.7°F17.6°C 49.5°F9.7°C 60% 1.6 mph SW2.6 kmh SW 5.4 mph8.7 kmh 30.04 in1017.3 mb 0.00 in0.0 mm 0.00 in0.0 mm 0.00 in0.0 mm
01:45 PM 64.2°F17.9°C 49.1°F9.5°C 58% 1.6 mph S2.6 kmh S 6.9 mph11.1 kmh 30.05 in1017.6 mb 0.00 in0.0 mm 0.00 in0.0 mm 0.00 in0.0 mm
02:00 PM 64.0°F17.8°C 49.0°F9.4°C 58% 2.2 mph S3.5 kmh S 9.8 mph15.8 kmh 30.04 in1017.3 mb 0.00 in0.0 mm 0.00 in0.0 mm 0.00 in0.0 mm
02:15 PM 63.9°F17.7°C 49.7°F9.8°C 60% 1.6 mph SE2.6 kmh SE 4.5 mph7.2 kmh 30.04 in1017.3 mb 0.00 in0.0 mm 0.00 in0.0 mm 0.00 in0.0 mm
02:30 PM 64.4°F18.0°C 50.7°F10.4°C 61% 1.6 mph S2.6 kmh S 3.8 mph6.1 kmh 30.04 in1017.3 mb 0.00 in0.0 mm 0.00 in0.0 mm 0.00 in0.0 mm
02:45 PM 66.7°F19.3°C 51.0°F10.6°C 57% 1.6 mph S2.6 kmh S 5.4 mph8.7 kmh 30.04 in1017.3 mb 0.00 in0.0 mm 0.00 in0.0 mm 0.00 in0.0 mm
03:00 PM 66.9°F19.4°C 48.7°F9.3°C 52% 2.2 mph SW3.5 kmh SW 7.6 mph12.2 kmh 30.04 in1017.3 mb 0.00 in0.0 mm 0.00 in0.0 mm 0.00 in0.0 mm
03:15 PM 66.2°F19.0°C 48.6°F9.2°C 53% 2.2 mph SSW3.5 kmh SSW 7.6 mph12.2 kmh 30.03 in1016.9 mb 0.00 in0.0 mm 0.00 in0.0 mm 0.00 in0.0 mm
03:30 PM 64.8°F18.2°C 47.7°F8.7°C 54% 3.1 mph SW5.0 kmh SW 7.6 mph12.2 kmh 30.04 in1017.3 mb 0.00 in0.0 mm 0.00 in0.0 mm 0.00 in0.0 mm
03:45 PM 63.7°F17.6°C 47.7°F8.7°C 56% 2.2 mph S3.5 kmh S 7.6 mph12.2 kmh 30.03 in1016.9 mb 0.00 in0.0 mm 0.00 in0.0 mm 0.00 in0.0 mm
04:00 PM 62.6°F17.0°C 49.4°F9.7°C 62% 0.7 mph S1.1 kmh S 3.8 mph6.1 kmh 30.04 in1017.3 mb 0.00 in0.0 mm 0.00 in0.0 mm 0.00 in0.0 mm
04:15 PM 61.9°F16.6°C 49.1°F9.5°C 63% 1.6 mph S2.6 kmh S 3.1 mph5.0 kmh 30.04 in1017.3 mb 0.00 in0.0 mm 0.00 in0.0 mm 0.00 in0.0 mm
04:30 PM 61.2°F16.2°C 48.9°F9.4°C 64% Calm Calm 2.2 mph3.5 kmh 30.04 in1017.3 mb 0.00 in0.0 mm 0.00 in0.0 mm 0.00 in0.0 mm
04:45 PM 60.4°F15.8°C 48.6°F9.2°C 65% Calm Calm 0.7 mph1.1 kmh 30.04 in1017.3 mb 0.00 in0.0 mm 0.00 in0.0 mm 0.00 in0.0 mm
05:00 PM 59.5°F15.3°C 48.6°F9.2°C 67% 0.7 mph S1.1 kmh S 3.1 mph5.0 kmh 30.04 in1017.3 mb 0.00 in0.0 mm 0.00 in0.0 mm 0.00 in0.0 mm
05:15 PM 58.8°F14.9°C 49.1°F9.5°C 70% 0.7 mph S1.1 kmh S 6.9 mph11.1 kmh 30.04 in1017.3 mb 0.00 in0.0 mm 0.00 in0.0 mm 0.00 in0.0 mm
05:30 PM 57.9°F14.4°C 48.2°F9.0°C 70% 1.6 mph S2.6 kmh S 2.2 mph3.5 kmh 30.05 in1017.6 mb 0.00 in0.0 mm 0.00 in0.0 mm 0.00 in0.0 mm
05:45 PM 57.4°F14.1°C 48.1°F8.9°C 71% 1.6 mph S2.6 kmh S 3.8 mph6.1 kmh 30.03 in1016.9 mb 0.00 in0.0 mm 0.00 in0.0 mm 0.00 in0.0 mm
06:00 PM 57.0°F13.9°C 48.1°F8.9°C 72% 0.7 mph S1.1 kmh S 3.1 mph5.0 kmh 30.04 in1017.3 mb 0.00 in0.0 mm 0.00 in0.0 mm 0.00 in0.0 mm
06:15 PM 56.8°F13.8°C 47.9°F8.8°C 72% 1.6 mph SE2.6 kmh SE 3.8 mph6.1 kmh 30.04 in1017.3 mb 0.00 in0.0 mm 0.00 in0.0 mm 0.00 in0.0 mm
06:30 PM 56.3°F13.5°C 47.8°F8.8°C 73% 0.7 mph SE1.1 kmh SE 3.8 mph6.1 kmh 30.04 in1017.3 mb 0.00 in0.0 mm 0.00 in0.0 mm 0.00 in0.0 mm
06:45 PM 55.9°F13.3°C 47.8°F8.8°C 74% 2.2 mph SE3.5 kmh SE 3.1 mph5.0 kmh 30.04 in1017.3 mb 0.00 in0.0 mm 0.00 in0.0 mm 0.00 in0.0 mm
07:00 PM 55.9°F13.3°C 47.8°F8.8°C 74% 3.1 mph SSE5.0 kmh SSE 3.8 mph6.1 kmh 30.03 in1016.9 mb 0.00 in0.0 mm 0.00 in0.0 mm 0.00 in0.0 mm
07:15 PM 56.1°F13.4°C 47.9°F8.8°C 74% 1.6 mph S2.6 kmh S 4.5 mph7.2 kmh 30.03 in1016.9 mb 0.00 in0.0 mm 0.00 in0.0 mm 0.00 in0.0 mm
07:30 PM 55.9°F13.3°C 47.4°F8.6°C 73% 1.6 mph SE2.6 kmh SE 4.5 mph7.2 kmh 30.02 in1016.6 mb 0.00 in0.0 mm 0.00 in0.0 mm 0.00 in0.0 mm
07:45 PM 55.4°F13.0°C 46.9°F8.3°C 73% 0.7 mph SE1.1 kmh SE 3.8 mph6.1 kmh 30.03 in1016.9 mb 0.00 in0.0 mm 0.00 in0.0 mm 0.00 in0.0 mm
08:00 PM 54.9°F12.7°C 46.7°F8.2°C 74% 2.2 mph SE3.5 kmh SE 3.1 mph5.0 kmh 30.03 in1016.9 mb 0.00 in0.0 mm 0.00 in0.0 mm 0.00 in0.0 mm
08:15 PM 54.5°F12.5°C 46.7°F8.2°C 75% 1.6 mph S2.6 kmh S 3.1 mph5.0 kmh 30.03 in1016.9 mb 0.00 in0.0 mm 0.00 in0.0 mm 0.00 in0.0 mm
08:30 PM 54.1°F12.3°C 47.4°F8.6°C 78% 0.7 mph SE1.1 kmh SE 3.1 mph5.0 kmh 30.04 in1017.3 mb 0.00 in0.0 mm 0.00 in0.0 mm 0.00 in0.0 mm
08:45 PM 53.4°F11.9°C 46.7°F8.2°C 78% 1.6 mph SE2.6 kmh SE 2.2 mph3.5 kmh 30.04 in1017.3 mb 0.00 in0.0 mm 0.00 in0.0 mm 0.00 in0.0 mm
09:00 PM 52.7°F11.5°C 46.4°F8.0°C 79% 1.6 mph SE2.6 kmh SE 2.2 mph3.5 kmh 30.04 in1017.3 mb 0.00 in0.0 mm 0.00 in0.0 mm 0.00 in0.0 mm
09:15 PM 52.0°F11.1°C 46.0°F7.8°C 80% 2.2 mph SE3.5 kmh SE 3.1 mph5.0 kmh 30.03 in1016.9 mb 0.00 in0.0 mm 0.00 in0.0 mm 0.00 in0.0 mm
09:30 PM 51.6°F10.9°C 45.7°F7.6°C 80% 1.6 mph SE2.6 kmh SE 3.1 mph5.0 kmh 30.03 in1016.9 mb 0.00 in0.0 mm 0.00 in0.0 mm 0.00 in0.0 mm
09:45 PM 51.4°F10.8°C 45.8°F7.7°C 81% 2.2 mph E3.5 kmh E 3.1 mph5.0 kmh 30.03 in1016.9 mb 0.00 in0.0 mm 0.00 in0.0 mm 0.00 in0.0 mm
10:00 PM 51.3°F10.7°C 45.6°F7.6°C 81% 1.6 mph E2.6 kmh E 3.1 mph5.0 kmh 30.04 in1017.3 mb 0.00 in0.0 mm 0.00 in0.0 mm 0.00 in0.0 mm
10:15 PM 50.9°F10.5°C 45.3°F7.4°C 81% 3.1 mph SE5.0 kmh SE 3.8 mph6.1 kmh 30.04 in1017.3 mb 0.00 in0.0 mm 0.00 in0.0 mm 0.00 in0.0 mm
10:30 PM 50.9°F10.5°C 45.6°F7.6°C 82% 3.1 mph SE5.0 kmh SE 4.5 mph7.2 kmh 30.03 in1016.9 mb 0.00 in0.0 mm 0.00 in0.0 mm 0.00 in0.0 mm
10:45 PM 51.1°F10.6°C 45.8°F7.7°C 82% 2.2 mph SE3.5 kmh SE 3.8 mph6.1 kmh 30.03 in1016.9 mb 0.00 in0.0 mm 0.00 in0.0 mm 0.00 in0.0 mm
11:00 PM 50.9°F10.5°C 45.6°F7.6°C 82% 2.2 mph SE3.5 kmh SE 5.4 mph8.7 kmh 30.03 in1016.9 mb 0.00 in0.0 mm 0.00 in0.0 mm 0.00 in0.0 mm
11:15 PM 51.4°F10.8°C 45.8°F7.7°C 81% 2.2 mph SSE3.5 kmh SSE 5.4 mph8.7 kmh 30.04 in1017.3 mb 0.00 in0.0 mm 0.00 in0.0 mm 0.00 in0.0 mm
11:30 PM 51.6°F10.9°C 46.0°F7.8°C 81% 1.6 mph SE2.6 kmh SE 3.8 mph6.1 kmh 30.04 in1017.3 mb 0.00 in0.0 mm 0.00 in0.0 mm 0.00 in0.0 mm
11:45 PM 51.4°F10.8°C 45.5°F7.5°C 80% 3.1 mph SE5.0 kmh SE 3.8 mph6.1 kmh 30.04 in1017.3 mb 0.00 in0.0 mm 0.00 in0.0 mm 0.00 in0.0 mm